sensor_id;sensor_type;location;lat;lon;timestamp;P1;durP1;ratioP1;P2;durP2;ratioP2
29162;SDS011;20331;53.144;8.208;2022-12-26T00:10:09;49.33;;;15.00;;
29162;SDS011;20331;53.144;8.208;2022-12-26T00:20:30;46.10;;;14.57;;
29162;SDS011;20331;53.144;8.208;2022-12-26T00:30:52;54.80;;;15.60;;
29162;SDS011;20331;53.144;8.208;2022-12-26T00:41:14;65.33;;;15.83;;
29162;SDS011;20331;53.144;8.208;2022-12-26T00:51:36;41.53;;;15.45;;
29162;SDS011;20331;53.144;8.208;2022-12-26T01:01:58;31.23;;;14.13;;
29162;SDS011;20331;53.144;8.208;2022-12-26T01:12:19;29.73;;;14.35;;
29162;SDS011;20331;53.144;8.208;2022-12-26T01:22:41;33.50;;;13.53;;
29162;SDS011;20331;53.144;8.208;2022-12-26T01:33:03;66.33;;;14.60;;
29162;SDS011;20331;53.144;8.208;2022-12-26T01:53:46;79.18;;;16.23;;
29162;SDS011;20331;53.144;8.208;2022-12-26T02:04:14;59.22;;;15.43;;
29162;SDS011;20331;53.144;8.208;2022-12-26T02:14:59;96.88;;;17.05;;
29162;SDS011;20331;53.144;8.208;2022-12-26T02:36:07;48.53;;;13.85;;
29162;SDS011;20331;53.144;8.208;2022-12-26T02:46:46;33.63;;;14.48;;
29162;SDS011;20331;53.144;8.208;2022-12-26T02:57:28;34.55;;;13.98;;
29162;SDS011;20331;53.144;8.208;2022-12-26T03:08:35;32.47;;;14.57;;
29162;SDS011;20331;53.144;8.208;2022-12-26T03:19:19;23.88;;;12.80;;
29162;SDS011;20331;53.144;8.208;2022-12-26T03:29:43;21.00;;;11.15;;
29162;SDS011;20331;53.144;8.208;2022-12-26T03:51:55;13.73;;;9.30;;
29162;SDS011;20331;53.144;8.208;2022-12-26T04:02:44;13.07;;;8.63;;
29162;SDS011;20331;53.144;8.208;2022-12-26T04:13:27;12.65;;;8.30;;
29162;SDS011;20331;53.144;8.208;2022-12-26T04:24:22;10.80;;;7.80;;
29162;SDS011;20331;53.144;8.208;2022-12-26T04:35:08;10.20;;;7.38;;
29162;SDS011;20331;53.144;8.208;2022-12-26T04:46:20;9.90;;;7.70;;
29162;SDS011;20331;53.144;8.208;2022-12-26T04:56:44;10.88;;;7.97;;
29162;SDS011;20331;53.144;8.208;2022-12-26T05:07:10;11.50;;;8.10;;
29162;SDS011;20331;53.144;8.208;2022-12-26T05:17:55;13.00;;;9.25;;
29162;SDS011;20331;53.144;8.208;2022-12-26T05:28:35;14.82;;;10.25;;
29162;SDS011;20331;53.144;8.208;2022-12-26T05:39:03;16.27;;;11.38;;
29162;SDS011;20331;53.144;8.208;2022-12-26T05:49:25;19.25;;;12.05;;
29162;SDS011;20331;53.144;8.208;2022-12-26T05:59:46;19.93;;;13.53;;
29162;SDS011;20331;53.144;8.208;2022-12-26T06:10:08;24.83;;;14.83;;
29162;SDS011;20331;53.144;8.208;2022-12-26T06:20:30;24.90;;;14.98;;
29162;SDS011;20331;53.144;8.208;2022-12-26T06:30:52;24.00;;;14.80;;
29162;SDS011;20331;53.144;8.208;2022-12-26T06:41:15;25.10;;;15.40;;
29162;SDS011;20331;53.144;8.208;2022-12-26T06:51:38;22.52;;;14.27;;
29162;SDS011;20331;53.144;8.208;2022-12-26T07:02:05;23.48;;;13.95;;
29162;SDS011;20331;53.144;8.208;2022-12-26T07:12:26;21.83;;;13.20;;
29162;SDS011;20331;53.144;8.208;2022-12-26T07:22:48;23.73;;;13.80;;
29162;SDS011;20331;53.144;8.208;2022-12-26T07:33:09;21.50;;;12.83;;
29162;SDS011;20331;53.144;8.208;2022-12-26T07:43:31;22.13;;;13.90;;
29162;SDS011;20331;53.144;8.208;2022-12-26T07:53:52;24.30;;;13.43;;
29162;SDS011;20331;53.144;8.208;2022-12-26T08:04:14;22.40;;;13.43;;
29162;SDS011;20331;53.144;8.208;2022-12-26T08:14:36;21.03;;;13.23;;
29162;SDS011;20331;53.144;8.208;2022-12-26T08:35:19;20.97;;;12.93;;
29162;SDS011;20331;53.144;8.208;2022-12-26T08:45:40;20.20;;;12.13;;
29162;SDS011;20331;53.144;8.208;2022-12-26T08:56:03;23.07;;;13.53;;
29162;SDS011;20331;53.144;8.208;2022-12-26T09:06:26;22.70;;;14.95;;
29162;SDS011;20331;53.144;8.208;2022-12-26T09:27:11;20.20;;;13.77;;
29162;SDS011;20331;53.144;8.208;2022-12-26T09:37:33;22.67;;;14.00;;
29162;SDS011;20331;53.144;8.208;2022-12-26T10:30:30;11.97;;;6.97;;
29162;SDS011;20331;53.144;8.208;2022-12-26T10:40:57;12.35;;;5.72;;
29162;SDS011;20331;53.144;8.208;2022-12-26T10:51:25;8.85;;;5.50;;
29162;SDS011;20331;53.144;8.208;2022-12-26T11:23:17;6.85;;;3.90;;
29162;SDS011;20331;53.144;8.208;2022-12-26T11:33:45;7.20;;;3.13;;
29162;SDS011;20331;53.144;8.208;2022-12-26T11:54:35;4.65;;;1.30;;
29162;SDS011;20331;53.144;8.208;2022-12-26T12:05:13;13.18;;;1.00;;
29162;SDS011;20331;53.144;8.208;2022-12-26T12:58:03;9.70;;;1.30;;
29162;SDS011;20331;53.144;8.208;2022-12-26T13:09:29;11.13;;;1.17;;
29162;SDS011;20331;53.144;8.208;2022-12-26T13:19:23;7.85;;;0.98;;
29162;SDS011;20331;53.144;8.208;2022-12-26T13:29:48;5.95;;;0.77;;
29162;SDS011;20331;53.144;8.208;2022-12-26T13:50:50;9.20;;;1.30;;
29162;SDS011;20331;53.144;8.208;2022-12-26T14:11:45;12.25;;;1.50;;
29162;SDS011;20331;53.144;8.208;2022-12-26T14:33:18;9.55;;;1.90;;
29162;SDS011;20331;53.144;8.208;2022-12-26T14:43:50;14.80;;;2.33;;
29162;SDS011;20331;53.144;8.208;2022-12-26T15:15:30;12.77;;;2.13;;
29162;SDS011;20331;53.144;8.208;2022-12-26T15:36:40;12.65;;;2.28;;
29162;SDS011;20331;53.144;8.208;2022-12-26T15:47:28;16.45;;;2.65;;
29162;SDS011;20331;53.144;8.208;2022-12-26T16:19:22;14.83;;;2.67;;
29162;SDS011;20331;53.144;8.208;2022-12-26T16:29:55;15.27;;;2.55;;
29162;SDS011;20331;53.144;8.208;2022-12-26T16:40:28;12.00;;;2.30;;
29162;SDS011;20331;53.144;8.208;2022-12-26T17:01:21;12.27;;;2.45;;
29162;SDS011;20331;53.144;8.208;2022-12-26T17:11:55;19.87;;;2.17;;
29162;SDS011;20331;53.144;8.208;2022-12-26T17:22:27;17.63;;;2.38;;
29162;SDS011;20331;53.144;8.208;2022-12-26T17:33:03;20.60;;;2.42;;
29162;SDS011;20331;53.144;8.208;2022-12-26T17:43:37;21.10;;;2.85;;
29162;SDS011;20331;53.144;8.208;2022-12-26T17:54:00;15.98;;;2.20;;
29162;SDS011;20331;53.144;8.208;2022-12-26T18:04:22;17.10;;;2.27;;
29162;SDS011;20331;53.144;8.208;2022-12-26T18:14:43;12.93;;;2.10;;
29162;SDS011;20331;53.144;8.208;2022-12-26T18:25:23;15.38;;;2.40;;
29162;SDS011;20331;53.144;8.208;2022-12-26T18:35:46;14.82;;;2.55;;
29162;SDS011;20331;53.144;8.208;2022-12-26T18:56:44;12.38;;;2.22;;
29162;SDS011;20331;53.144;8.208;2022-12-26T19:07:05;17.80;;;2.83;;
